createdAt,value
2023-02-19T00:00:48.000Z,3.5
2023-02-19T00:04:21.000Z,4.4
2023-02-19T00:07:53.000Z,3.8
2023-02-19T00:11:26.000Z,4.8
2023-02-19T00:14:59.000Z,3.9
2023-02-19T00:18:31.000Z,4
2023-02-19T00:22:04.000Z,3.6
2023-02-19T00:25:37.000Z,3.2
2023-02-19T00:29:09.000Z,3.6
2023-02-19T00:32:42.000Z,3.2
2023-02-19T00:36:15.000Z,3.1
2023-02-19T00:39:06.000Z,3.2
2023-02-19T00:42:39.000Z,3
2023-02-19T00:46:11.000Z,3.2
2023-02-19T00:49:44.000Z,3.2
2023-02-19T00:53:17.000Z,3.1
2023-02-19T00:56:49.000Z,2.8
2023-02-19T01:00:22.000Z,2.5
2023-02-19T01:03:54.000Z,2.7
2023-02-19T01:07:29.000Z,3
2023-02-19T01:11:02.000Z,2.6
2023-02-19T01:14:35.000Z,3.2
2023-02-19T01:17:26.000Z,3.4
2023-02-19T01:20:58.000Z,3.6
2023-02-19T01:24:31.000Z,4.1
2023-02-19T01:28:03.000Z,4.2
2023-02-19T01:31:36.000Z,4
2023-02-19T01:35:09.000Z,3.5
2023-02-19T01:38:41.000Z,3.6
2023-02-19T01:42:14.000Z,3.1
2023-02-19T01:45:47.000Z,3.1
2023-02-19T01:49:19.000Z,4.2
2023-02-19T01:52:52.000Z,4.8
2023-02-19T01:55:43.000Z,4.7
2023-02-19T01:59:15.000Z,5.1
2023-02-19T02:02:48.000Z,5.7
2023-02-19T02:06:20.000Z,5.8
2023-02-19T02:09:53.000Z,6.2
2023-02-19T02:13:26.000Z,5.7
2023-02-19T02:16:59.000Z,5.5
2023-02-19T02:20:31.000Z,5.5
2023-02-19T02:24:04.000Z,5.5
2023-02-19T02:27:37.000Z,5.9
2023-02-19T02:31:09.000Z,4.9
2023-02-19T02:34:01.000Z,4.9
2023-02-19T02:37:33.000Z,5.7
2023-02-19T02:41:06.000Z,6.2
2023-02-19T02:44:39.000Z,5.5
2023-02-19T02:48:11.000Z,5
2023-02-19T02:51:44.000Z,4.9
2023-02-19T02:55:17.000Z,4.6
2023-02-19T02:58:49.000Z,4
2023-02-19T03:02:22.000Z,3.2
2023-02-19T03:05:55.000Z,2.6
2023-02-19T03:09:27.000Z,3
2023-02-19T03:12:19.000Z,2.1
2023-02-19T03:15:51.000Z,2.2
2023-02-19T03:19:24.000Z,2.7
2023-02-19T03:22:57.000Z,3
2023-02-19T03:26:29.000Z,3.6
2023-02-19T03:30:02.000Z,3.9
2023-02-19T03:33:35.000Z,4.3
2023-02-19T03:37:08.000Z,4
2023-02-19T03:40:40.000Z,3.8
2023-02-19T03:44:13.000Z,3.9
2023-02-19T03:47:46.000Z,3.3
2023-02-19T03:50:37.000Z,3.6
2023-02-19T03:54:10.000Z,3.4
2023-02-19T03:57:42.000Z,3.3
2023-02-19T04:01:15.000Z,3.1
2023-02-19T04:04:47.000Z,3
2023-02-19T04:08:20.000Z,2.8
2023-02-19T04:11:53.000Z,2.7
2023-02-19T04:15:25.000Z,2.6
2023-02-19T04:18:58.000Z,3.4
2023-02-19T04:22:31.000Z,2.4
2023-02-19T04:26:03.000Z,2.5
2023-02-19T04:28:55.000Z,2
2023-02-19T04:32:28.000Z,2.1
2023-02-19T04:36:00.000Z,1.8
2023-02-19T04:39:33.000Z,2
2023-02-19T04:43:06.000Z,2.1
2023-02-19T04:46:39.000Z,2.1
2023-02-19T04:50:11.000Z,2.1
2023-02-19T04:53:44.000Z,2.4
2023-02-19T04:57:17.000Z,2.6
2023-02-19T05:00:49.000Z,2.7
2023-02-19T05:04:22.000Z,2.7
2023-02-19T05:07:13.000Z,2.7
2023-02-19T05:10:46.000Z,2.5
2023-02-19T05:14:18.000Z,2.7
2023-02-19T05:17:51.000Z,2.4
2023-02-19T05:21:23.000Z,2.6
2023-02-19T05:24:56.000Z,2.2
2023-02-19T05:28:29.000Z,1.9
2023-02-19T05:32:01.000Z,1.6
2023-02-19T05:35:34.000Z,1.4
2023-02-19T05:39:07.000Z,1.2
2023-02-19T05:42:40.000Z,1
2023-02-19T05:45:31.000Z,1.4
2023-02-19T05:49:04.000Z,1.1
2023-02-19T05:52:38.000Z,1.5
2023-02-19T05:56:11.000Z,1.6
2023-02-19T05:59:44.000Z,2
2023-02-19T06:03:16.000Z,3.1
2023-02-19T06:06:49.000Z,2.9
2023-02-19T06:10:22.000Z,3.1
2023-02-19T06:13:54.000Z,3.5
2023-02-19T06:17:27.000Z,3.9
2023-02-19T06:20:59.000Z,3.9
2023-02-19T06:23:51.000Z,3.9
2023-02-19T06:27:23.000Z,3.4
2023-02-19T06:30:56.000Z,3.4
2023-02-19T06:34:29.000Z,3.3
2023-02-19T06:38:01.000Z,3.4
2023-02-19T06:41:34.000Z,3.8
2023-02-19T06:45:07.000Z,3.8
2023-02-19T06:48:39.000Z,4.2
2023-02-19T06:52:12.000Z,5.2
2023-02-19T06:55:45.000Z,6.2
2023-02-19T06:59:17.000Z,5.5
2023-02-19T07:02:09.000Z,6.4
2023-02-19T07:05:42.000Z,6.5
2023-02-19T07:09:14.000Z,6.8
2023-02-19T07:12:47.000Z,7.7
2023-02-19T07:16:19.000Z,7.5
2023-02-19T07:19:52.000Z,7.4
2023-02-19T07:23:25.000Z,7.7
2023-02-19T07:26:58.000Z,6.9
2023-02-19T07:30:30.000Z,8.4
2023-02-19T07:34:03.000Z,7.8
2023-02-19T07:37:36.000Z,7.3
2023-02-19T07:40:27.000Z,7.3
2023-02-19T07:43:59.000Z,7.7
2023-02-19T07:47:32.000Z,6.8
2023-02-19T07:51:05.000Z,6.5
2023-02-19T07:54:38.000Z,5
2023-02-19T07:58:10.000Z,5.1
2023-02-19T08:01:43.000Z,4.5
2023-02-19T08:05:16.000Z,4.4
2023-02-19T08:08:49.000Z,4.3
2023-02-19T08:12:22.000Z,4
2023-02-19T08:15:55.000Z,4.4
2023-02-19T08:19:02.000Z,4.5
2023-02-19T08:22:34.000Z,4.3
2023-02-19T08:26:07.000Z,4.3
2023-02-19T08:29:40.000Z,4.5
2023-02-19T08:33:13.000Z,4.2
2023-02-19T08:36:46.000Z,4.5
2023-02-19T08:40:18.000Z,4.2
2023-02-19T08:43:51.000Z,4.6
2023-02-19T08:47:24.000Z,5.1
2023-02-19T08:50:56.000Z,5.1
2023-02-19T08:54:29.000Z,4.8
2023-02-19T08:57:20.000Z,4.5
2023-02-19T09:00:53.000Z,5.5
2023-02-19T09:04:26.000Z,5
2023-02-19T09:07:59.000Z,6.2
2023-02-19T09:11:31.000Z,6.5
2023-02-19T09:15:04.000Z,6.4
2023-02-19T09:18:37.000Z,6.6
2023-02-19T09:22:09.000Z,6.5
2023-02-19T09:25:42.000Z,6.8
2023-02-19T09:29:15.000Z,7.4
2023-02-19T09:32:48.000Z,7
2023-02-19T09:35:39.000Z,6.7
2023-02-19T09:39:12.000Z,6.3
2023-02-19T09:42:44.000Z,6.2
2023-02-19T09:46:17.000Z,5.5
2023-02-19T09:49:50.000Z,5.3
2023-02-19T09:53:22.000Z,4.9
2023-02-19T09:56:55.000Z,5
2023-02-19T10:00:28.000Z,5.2
2023-02-19T10:04:01.000Z,4.4
2023-02-19T10:07:34.000Z,4.1
2023-02-19T10:11:06.000Z,4
2023-02-19T10:13:58.000Z,3.9
2023-02-19T10:17:30.000Z,4.3
2023-02-19T10:21:03.000Z,4.4
2023-02-19T10:24:36.000Z,4
2023-02-19T10:28:09.000Z,4.4
2023-02-19T10:31:42.000Z,4.1
2023-02-19T10:35:15.000Z,4.1
2023-02-19T10:38:47.000Z,4.2
2023-02-19T10:42:20.000Z,3.6
2023-02-19T10:45:53.000Z,3.4
2023-02-19T10:49:26.000Z,3.8
2023-02-19T10:52:17.000Z,4.1
2023-02-19T10:55:49.000Z,3.7
2023-02-19T10:59:22.000Z,3.4
2023-02-19T11:02:55.000Z,4
2023-02-19T11:06:28.000Z,4.6
2023-02-19T11:10:00.000Z,4.9
2023-02-19T11:13:33.000Z,4.6
2023-02-19T11:17:06.000Z,4.3
2023-02-19T11:20:38.000Z,4.2
2023-02-19T11:24:11.000Z,4.4
2023-02-19T11:27:44.000Z,5.1
2023-02-19T11:30:35.000Z,4.5
2023-02-19T11:34:08.000Z,4.7
2023-02-19T11:37:41.000Z,5.2
2023-02-19T11:41:13.000Z,4.9
2023-02-19T11:44:46.000Z,5.1
2023-02-19T11:48:19.000Z,5.5
2023-02-19T11:51:53.000Z,5.2
2023-02-19T11:55:25.000Z,5.4
2023-02-19T11:58:58.000Z,4.9
2023-02-19T12:02:31.000Z,4.6
2023-02-19T12:06:03.000Z,5.2
2023-02-19T12:08:55.000Z,5.3
2023-02-19T12:12:28.000Z,5.1
2023-02-19T12:16:03.000Z,5.2
2023-02-19T12:19:36.000Z,6.6
2023-02-19T12:23:09.000Z,5.2
2023-02-19T12:26:41.000Z,5.2
2023-02-19T12:30:14.000Z,5.6
2023-02-19T12:33:47.000Z,6
2023-02-19T12:37:20.000Z,5.8
2023-02-19T12:40:52.000Z,5.6
2023-02-19T12:44:25.000Z,5.9
2023-02-19T12:47:16.000Z,6.1
2023-02-19T12:50:49.000Z,5.4
2023-02-19T12:54:21.000Z,5.4
2023-02-19T12:57:54.000Z,5.4
2023-02-19T13:01:27.000Z,5
2023-02-19T13:04:59.000Z,4.7
2023-02-19T13:08:32.000Z,5.1
2023-02-19T13:12:18.000Z,4.2
2023-02-19T13:15:50.000Z,4.7
2023-02-19T13:19:23.000Z,5
2023-02-19T13:22:56.000Z,4.8
2023-02-19T13:25:47.000Z,5
2023-02-19T13:29:22.000Z,4.9
2023-02-19T13:32:55.000Z,6.1
2023-02-19T13:36:28.000Z,5.6
2023-02-19T13:40:00.000Z,5.6
2023-02-19T13:43:33.000Z,6.1
2023-02-19T13:47:06.000Z,5.6
2023-02-19T13:50:39.000Z,5.4
2023-02-19T13:54:11.000Z,5.2
2023-02-19T13:57:44.000Z,4.6
2023-02-19T14:01:16.000Z,4.8
2023-02-19T14:04:08.000Z,4.4
2023-02-19T14:07:40.000Z,4.8
2023-02-19T14:11:13.000Z,4.7
2023-02-19T14:14:46.000Z,5.2
2023-02-19T14:18:19.000Z,4.9
2023-02-19T14:21:51.000Z,4.8
2023-02-19T14:25:24.000Z,4.9
2023-02-19T14:28:57.000Z,5.3
2023-02-19T14:32:29.000Z,5.2
2023-02-19T14:36:02.000Z,4.7
2023-02-19T14:39:35.000Z,4.5
2023-02-19T14:42:26.000Z,4.3
2023-02-19T14:45:58.000Z,4.1
2023-02-19T14:49:31.000Z,4.2
2023-02-19T14:53:04.000Z,3.8
2023-02-19T14:56:36.000Z,3.6
2023-02-19T15:00:09.000Z,3.1
2023-02-19T15:03:42.000Z,2.5
2023-02-19T15:07:15.000Z,2.6
2023-02-19T15:10:47.000Z,2.6
2023-02-19T15:14:20.000Z,2.5
2023-02-19T15:17:53.000Z,2.5
2023-02-19T15:20:44.000Z,2.4
2023-02-19T15:24:17.000Z,2.3
2023-02-19T15:27:49.000Z,2.4
2023-02-19T15:31:22.000Z,2.5
2023-02-19T15:34:55.000Z,2.5
2023-02-19T15:38:28.000Z,3.9
2023-02-19T15:42:01.000Z,3.3
2023-02-19T15:45:34.000Z,3.2
2023-02-19T15:49:06.000Z,3.1
2023-02-19T15:52:39.000Z,3.1
2023-02-19T15:56:12.000Z,3.5
2023-02-19T15:59:03.000Z,3.9
2023-02-19T16:02:36.000Z,3.6
2023-02-19T16:06:09.000Z,4.6
2023-02-19T16:09:41.000Z,4.5
2023-02-19T16:13:14.000Z,2.9
2023-02-19T16:16:47.000Z,3.2
2023-02-19T16:20:19.000Z,3.1
2023-02-19T16:23:52.000Z,2.7
2023-02-19T16:27:24.000Z,2
2023-02-19T16:30:57.000Z,1.9
2023-02-19T16:34:30.000Z,3.5
2023-02-19T16:37:21.000Z,2.4
2023-02-19T16:40:54.000Z,3
2023-02-19T16:44:26.000Z,2.1
2023-02-19T16:47:59.000Z,3
2023-02-19T16:51:32.000Z,2.7
2023-02-19T16:55:05.000Z,3
2023-02-19T16:58:37.000Z,2.8
2023-02-19T17:02:10.000Z,2.7
2023-02-19T17:05:43.000Z,3.3
2023-02-19T17:09:15.000Z,3.2
2023-02-19T17:12:48.000Z,4
2023-02-19T17:15:39.000Z,4.5
2023-02-19T17:19:12.000Z,4
2023-02-19T17:22:45.000Z,3.9
2023-02-19T17:26:17.000Z,4.4
2023-02-19T17:29:50.000Z,5.1
2023-02-19T17:33:23.000Z,3.8
2023-02-19T17:36:56.000Z,4.4
2023-02-19T17:40:28.000Z,4.8
2023-02-19T17:44:01.000Z,4.7
2023-02-19T17:47:34.000Z,5.4
2023-02-19T17:51:07.000Z,5.6
2023-02-19T17:53:58.000Z,7
2023-02-19T17:57:33.000Z,6.5
2023-02-19T18:01:06.000Z,6.6
2023-02-19T18:04:39.000Z,6.6
2023-02-19T18:08:12.000Z,7.4
2023-02-19T18:11:44.000Z,7.3
2023-02-19T18:15:17.000Z,7.8
2023-02-19T18:18:50.000Z,7.7
2023-02-19T18:22:23.000Z,8.5
2023-02-19T18:25:55.000Z,9.5
2023-02-19T18:29:28.000Z,9.6
2023-02-19T18:32:19.000Z,10.4
2023-02-19T18:35:51.000Z,10.3
2023-02-19T18:39:24.000Z,9.6
2023-02-19T18:42:57.000Z,10
2023-02-19T18:46:30.000Z,9.7
2023-02-19T18:50:03.000Z,9.3
2023-02-19T18:53:35.000Z,9.8
2023-02-19T18:57:08.000Z,10.6
2023-02-19T19:00:41.000Z,9.2
2023-02-19T19:04:13.000Z,9.1
2023-02-19T19:07:46.000Z,9.9
2023-02-19T19:10:37.000Z,9
2023-02-19T19:14:10.000Z,11.9
2023-02-19T19:17:42.000Z,9.2
2023-02-19T19:21:15.000Z,9.8
2023-02-19T19:24:48.000Z,14.8
2023-02-19T19:28:21.000Z,8.7
2023-02-19T19:31:54.000Z,9.3
2023-02-19T19:35:26.000Z,8.2
2023-02-19T19:38:59.000Z,8.9
2023-02-19T19:42:32.000Z,9.3
2023-02-19T19:46:04.000Z,9.9
2023-02-19T19:48:56.000Z,9.6
2023-02-19T19:52:28.000Z,9.8
2023-02-19T19:56:01.000Z,9.6
2023-02-19T19:59:33.000Z,10.8
2023-02-19T20:03:06.000Z,10.9
2023-02-19T20:06:39.000Z,13.7
2023-02-19T20:10:12.000Z,13.7
2023-02-19T20:13:44.000Z,13.8
2023-02-19T20:17:17.000Z,14.4
2023-02-19T20:20:49.000Z,15.3
2023-02-19T20:24:22.000Z,15.8
2023-02-19T20:27:13.000Z,17.7
2023-02-19T20:30:46.000Z,18.1
2023-02-19T20:34:19.000Z,18.6
2023-02-19T20:37:52.000Z,17.8
2023-02-19T20:41:24.000Z,19.4
2023-02-19T20:44:57.000Z,18.3
2023-02-19T20:48:30.000Z,16.9
2023-02-19T20:52:02.000Z,18.7
2023-02-19T20:55:35.000Z,19.2
2023-02-19T20:59:08.000Z,19.2
2023-02-19T21:02:40.000Z,19.9
2023-02-19T21:05:31.000Z,20.1
2023-02-19T21:09:05.000Z,19
2023-02-19T21:12:37.000Z,19.2
2023-02-19T21:16:10.000Z,18.2
2023-02-19T21:19:43.000Z,16.9
2023-02-19T21:23:15.000Z,16.3
2023-02-19T21:26:48.000Z,16.4
2023-02-19T21:30:21.000Z,16.2
2023-02-19T21:33:54.000Z,16.5
2023-02-19T21:37:26.000Z,16.8
2023-02-19T21:40:59.000Z,16.6
2023-02-19T21:43:50.000Z,15.2
2023-02-19T21:47:22.000Z,14.9
2023-02-19T21:50:55.000Z,14.8
2023-02-19T21:54:28.000Z,13.3
2023-02-19T21:58:00.000Z,12.7
2023-02-19T22:01:33.000Z,11.6
2023-02-19T22:05:06.000Z,10.7
2023-02-19T22:08:38.000Z,11.3
2023-02-19T22:12:11.000Z,11.4
2023-02-19T22:15:44.000Z,10.5
2023-02-19T22:19:16.000Z,10.2
2023-02-19T22:22:08.000Z,10.3
2023-02-19T22:25:40.000Z,10.2
2023-02-19T22:29:13.000Z,10.3
2023-02-19T22:32:45.000Z,10
2023-02-19T22:36:18.000Z,9.2
2023-02-19T22:39:51.000Z,9.8
2023-02-19T22:43:24.000Z,8.6
2023-02-19T22:46:57.000Z,8.5
2023-02-19T22:50:29.000Z,8.8
2023-02-19T22:54:02.000Z,9.1
2023-02-19T22:57:35.000Z,9.9
2023-02-19T23:00:26.000Z,11.1
2023-02-19T23:03:59.000Z,11.7
2023-02-19T23:07:31.000Z,10.5
2023-02-19T23:11:04.000Z,10.5
2023-02-19T23:14:36.000Z,9.4
2023-02-19T23:18:10.000Z,10
2023-02-19T23:21:43.000Z,9.2
2023-02-19T23:25:16.000Z,8.8
2023-02-19T23:28:48.000Z,9.5
2023-02-19T23:32:21.000Z,9.6
2023-02-19T23:35:54.000Z,10
2023-02-19T23:38:45.000Z,8.7
2023-02-19T23:42:18.000Z,8.6
2023-02-19T23:45:50.000Z,7.4
2023-02-19T23:49:23.000Z,7.2
2023-02-19T23:52:56.000Z,6.5
2023-02-19T23:56:28.000Z,6.8
